createdAt,value
2017-01-28T00:00:51.391Z,-6.94
2017-01-28T00:01:51.375Z,-6.92
2017-01-28T00:02:51.349Z,-6.89
2017-01-28T00:03:51.330Z,-6.94
2017-01-28T00:04:51.304Z,-6.89
2017-01-28T00:05:51.297Z,-6.92
2017-01-28T00:06:50.866Z,-6.89
2017-01-28T00:07:51.245Z,-6.88
2017-01-28T00:08:50.824Z,-6.88
2017-01-28T00:09:51.203Z,-6.98
2017-01-28T00:10:50.787Z,-6.76
2017-01-28T00:11:51.165Z,-6.76
2017-01-28T00:12:51.141Z,-6.8
2017-01-28T00:13:51.115Z,-6.74
2017-01-28T00:14:51.097Z,-6.73
2017-01-28T00:15:50.680Z,-6.67
2017-01-28T00:16:50.663Z,-6.65
2017-01-28T00:17:51.034Z,-6.54
2017-01-28T00:18:50.616Z,-6.58
2017-01-28T00:19:50.990Z,-6.58
2017-01-28T00:20:50.999Z,-6.52
2017-01-28T00:21:50.945Z,-6.55
2017-01-28T00:22:50.931Z,-6.62
2017-01-28T00:23:50.507Z,-6.49
2017-01-28T00:24:50.898Z,-6.4
2017-01-28T00:25:50.868Z,-6.37
2017-01-28T00:26:50.851Z,-6.4
2017-01-28T00:27:50.825Z,-6.33
2017-01-28T00:28:50.406Z,-6.23
2017-01-28T00:29:50.781Z,-6.22
2017-01-28T00:30:50.766Z,-6.18
2017-01-28T00:31:50.744Z,-6.2
2017-01-28T00:32:50.717Z,-6.12
2017-01-28T00:33:50.695Z,-6.15
2017-01-28T00:34:50.683Z,-6.08
2017-01-28T00:35:50.657Z,-6.18
2017-01-28T00:36:50.632Z,-6.02
2017-01-28T00:37:50.615Z,-6.04
2017-01-28T00:38:50.603Z,-6.05
2017-01-28T00:39:50.571Z,-6.01
2017-01-28T00:40:50.551Z,-6.01
2017-01-28T00:41:50.528Z,-6.07
2017-01-28T00:42:50.508Z,-6.04
2017-01-28T00:43:50.492Z,-6.02
2017-01-28T00:44:50.472Z,-5.99
2017-01-28T00:45:50.445Z,-6.19
2017-01-28T00:46:50.428Z,-6.13
2017-01-28T00:47:50.405Z,-6.16
2017-01-28T00:48:50.385Z,-6.25
2017-01-28T00:49:50.372Z,-6.26
2017-01-28T00:50:50.337Z,-6.37
2017-01-28T00:51:50.320Z,-6.34
2017-01-28T00:52:50.303Z,-6.38
2017-01-28T00:53:50.279Z,-6.38
2017-01-28T00:54:50.261Z,-6.36
2017-01-28T00:55:50.236Z,-6.41
2017-01-28T00:56:50.219Z,-6.4
2017-01-28T00:57:50.198Z,-6.55
2017-01-28T00:58:50.198Z,-6.51
2017-01-28T00:59:50.162Z,-6.41
2017-01-28T01:00:50.134Z,-6.38
2017-01-28T01:01:50.111Z,-6.41
2017-01-28T01:02:50.091Z,-6.54
2017-01-28T01:03:50.070Z,-6.49
2017-01-28T01:04:50.050Z,-6.52
2017-01-28T01:05:50.029Z,-6.44
2017-01-28T01:06:50.011Z,-6.6
2017-01-28T01:07:49.991Z,-6.52
2017-01-28T01:08:49.965Z,-6.49
2017-01-28T01:09:49.940Z,-6.51
2017-01-28T01:10:49.924Z,-6.49
2017-01-28T01:11:49.901Z,-6.48
2017-01-28T01:12:49.881Z,-6.43
2017-01-28T01:13:49.874Z,-6.43
2017-01-28T01:14:49.838Z,-6.52
2017-01-28T01:15:49.822Z,-6.52
2017-01-28T01:16:49.800Z,-6.49
2017-01-28T01:17:49.778Z,-6.63
2017-01-28T01:18:49.358Z,-6.63
2017-01-28T01:19:49.738Z,-6.6
2017-01-28T01:20:49.713Z,-6.6
2017-01-28T01:21:49.696Z,-6.59
2017-01-28T01:22:49.668Z,-6.58
2017-01-28T01:23:49.647Z,-6.65
2017-01-28T01:24:49.628Z,-6.68
2017-01-28T01:25:49.612Z,-6.65
2017-01-28T01:26:49.585Z,-6.65
2017-01-28T01:27:49.164Z,-6.7
2017-01-28T01:28:49.545Z,-6.74
2017-01-28T01:29:49.533Z,-6.71
2017-01-28T01:30:49.506Z,-6.74
2017-01-28T01:31:49.481Z,-6.68
2017-01-28T01:32:49.462Z,-6.76
2017-01-28T01:33:49.434Z,-6.7
2017-01-28T01:34:49.415Z,-6.67
2017-01-28T01:35:49.394Z,-6.68
2017-01-28T01:36:49.377Z,-6.62
2017-01-28T01:37:49.352Z,-6.68
2017-01-28T01:38:49.328Z,-6.71
2017-01-28T01:39:49.309Z,-6.65
2017-01-28T01:40:49.287Z,-6.68
2017-01-28T01:41:49.266Z,-6.68
2017-01-28T01:42:49.254Z,-6.67
2017-01-28T01:43:49.231Z,-6.67
2017-01-28T01:44:49.203Z,-6.67
2017-01-28T01:45:49.185Z,-6.71
2017-01-28T01:46:49.163Z,-6.73
2017-01-28T01:47:49.148Z,-6.81
2017-01-28T01:48:49.121Z,-6.7
2017-01-28T01:49:49.122Z,-6.71
2017-01-28T01:50:49.079Z,-6.81
2017-01-28T01:51:49.082Z,-6.73
2017-01-28T01:52:49.035Z,-6.74
2017-01-28T01:53:49.017Z,-6.71
2017-01-28T01:54:49.002Z,-6.68
2017-01-28T01:55:48.971Z,-6.71
2017-01-28T01:56:48.948Z,-6.7
2017-01-28T01:57:48.529Z,-6.67
2017-01-28T01:58:48.940Z,-6.6
2017-01-28T01:59:48.887Z,-6.6
2017-01-28T02:00:48.865Z,-6.58
2017-01-28T02:01:48.447Z,-6.58
2017-01-28T02:02:48.424Z,-6.54
2017-01-28T02:03:48.797Z,-6.51
2017-01-28T02:04:48.797Z,-6.58
2017-01-28T02:05:48.761Z,-6.44
2017-01-28T02:06:48.733Z,-6.41
2017-01-28T02:07:48.323Z,-6.36
2017-01-28T02:08:48.693Z,-6.37
2017-01-28T02:09:48.682Z,-6.36
2017-01-28T02:10:48.658Z,-6.38
2017-01-28T02:11:48.628Z,-6.36
2017-01-28T02:12:48.609Z,-6.37
2017-01-28T02:13:56.849Z,-6.37
2017-01-28T02:14:48.571Z,-6.23
2017-01-28T02:15:48.560Z,-6.25
2017-01-28T02:16:48.533Z,-6.3
2017-01-28T02:17:48.513Z,-6.31
2017-01-28T02:18:48.490Z,-6.33
2017-01-28T02:19:48.478Z,-6.41
2017-01-28T02:20:48.058Z,-6.4
2017-01-28T02:21:48.444Z,-6.26
2017-01-28T02:22:48.410Z,-6.33
2017-01-28T02:23:48.400Z,-6.37
2017-01-28T02:24:48.373Z,-6.36
2017-01-28T02:25:47.943Z,-6.4
2017-01-28T02:26:48.323Z,-6.37
2017-01-28T02:27:48.310Z,-6.43
2017-01-28T02:28:48.276Z,-6.41
2017-01-28T02:29:48.262Z,-6.48
2017-01-28T02:30:48.233Z,-6.54
2017-01-28T02:31:48.215Z,-6.62
2017-01-28T02:32:48.202Z,-6.65
2017-01-28T02:33:48.187Z,-6.67
2017-01-28T02:34:48.194Z,-6.71
2017-01-28T02:35:48.151Z,-6.7
2017-01-28T02:36:48.120Z,-6.74
2017-01-28T02:37:48.091Z,-6.76
2017-01-28T02:38:48.075Z,-6.77
2017-01-28T02:39:47.654Z,-6.81
2017-01-28T02:40:48.024Z,-6.87
2017-01-28T02:41:48.007Z,-6.97
2017-01-28T02:42:47.592Z,-6.97
2017-01-28T02:43:47.974Z,-6.98
2017-01-28T02:44:47.951Z,-6.92
2017-01-28T02:45:47.950Z,-6.87
2017-01-28T02:46:47.902Z,-6.97
2017-01-28T02:47:47.492Z,-6.8
2017-01-28T02:48:47.867Z,-6.76
2017-01-28T02:49:47.856Z,-6.8
2017-01-28T02:50:47.838Z,-6.81
2017-01-28T02:51:47.796Z,-6.78
2017-01-28T02:52:47.777Z,-6.92
2017-01-28T02:53:47.767Z,-6.89
2017-01-28T02:54:47.339Z,-6.8
2017-01-28T02:55:47.719Z,-6.92
2017-01-28T02:56:47.690Z,-6.92
2017-01-28T02:57:47.676Z,-6.84
2017-01-28T02:58:46.853Z,-6.91
2017-01-28T02:59:47.635Z,-7.01
2017-01-28T03:00:47.620Z,-7.01
2017-01-28T03:01:47.595Z,-6.92
2017-01-28T03:02:47.168Z,-6.98
2017-01-28T03:03:47.545Z,-7.01
2017-01-28T03:04:47.532Z,-7.06
2017-01-28T03:05:47.502Z,-7.02
2017-01-28T03:06:47.477Z,-7.09
2017-01-28T03:07:47.064Z,-7.1
2017-01-28T03:08:47.444Z,-7.06
2017-01-28T03:09:47.426Z,-7.13
2017-01-28T03:10:47.395Z,-7.22
2017-01-28T03:11:46.988Z,-7.22
2017-01-28T03:12:47.348Z,-7.2
2017-01-28T03:13:47.327Z,-7.3
2017-01-28T03:14:47.317Z,-7.24
2017-01-28T03:15:47.292Z,-7.31
2017-01-28T03:16:46.869Z,-7.27
2017-01-28T03:17:47.249Z,-7.3
2017-01-28T03:18:46.826Z,-7.3
2017-01-28T03:19:46.805Z,-7.49
2017-01-28T03:20:47.180Z,-7.48
2017-01-28T03:21:46.769Z,-7.45
2017-01-28T03:22:47.144Z,-7.49
2017-01-28T03:23:46.729Z,-7.55
2017-01-28T03:24:47.096Z,-7.52
2017-01-28T03:25:47.076Z,-7.56
2017-01-28T03:26:47.049Z,-7.56
2017-01-28T03:27:46.638Z,-7.52
2017-01-28T03:28:47.018Z,-7.54
2017-01-28T03:29:46.996Z,-7.51
2017-01-28T03:30:46.578Z,-7.47
2017-01-28T03:31:46.955Z,-7.48
2017-01-28T03:32:46.937Z,-7.52
2017-01-28T03:33:46.915Z,-7.48
2017-01-28T03:34:46.085Z,-7.48
2017-01-28T03:35:46.865Z,-7.55
2017-01-28T03:36:46.838Z,-7.52
2017-01-28T03:37:46.820Z,-7.47
2017-01-28T03:38:46.799Z,-7.42
2017-01-28T03:39:46.784Z,-7.44
2017-01-28T03:40:46.754Z,-7.48
2017-01-28T03:41:46.736Z,-7.22
2017-01-28T03:42:46.707Z,-7.28
2017-01-28T03:43:46.692Z,-7.28
2017-01-28T03:44:46.664Z,-7.22
2017-01-28T03:45:46.649Z,-7.26
2017-01-28T03:46:46.629Z,-7.34
2017-01-28T03:47:46.609Z,-7.3
2017-01-28T03:48:46.189Z,-7.3
2017-01-28T03:49:46.568Z,-7.44
2017-01-28T03:50:46.534Z,-7.42
2017-01-28T03:51:46.512Z,-7.44
2017-01-28T03:52:46.099Z,-7.45
2017-01-28T03:53:46.076Z,-7.4
2017-01-28T03:54:46.450Z,-7.54
2017-01-28T03:55:46.443Z,-7.56
2017-01-28T03:56:46.410Z,-7.56
2017-01-28T03:57:46.387Z,-7.54
2017-01-28T03:58:46.373Z,-7.56
2017-01-28T03:59:46.350Z,-7.52
2017-01-28T04:00:46.327Z,-7.54
2017-01-28T04:01:46.308Z,-7.49
2017-01-28T04:02:46.287Z,-7.44
2017-01-28T04:03:46.270Z,-7.62
2017-01-28T04:04:46.239Z,-7.62
2017-01-28T04:05:46.223Z,-7.62
2017-01-28T04:06:46.205Z,-7.66
2017-01-28T04:07:46.175Z,-7.59
2017-01-28T04:08:46.149Z,-7.65
2017-01-28T04:09:46.126Z,-7.66
2017-01-28T04:10:46.106Z,-7.65
2017-01-28T04:11:46.091Z,-7.55
2017-01-28T04:12:46.060Z,-7.66
2017-01-28T04:13:45.641Z,-7.56
2017-01-28T04:14:45.615Z,-7.63
2017-01-28T04:15:45.601Z,-7.59
2017-01-28T04:16:45.974Z,-7.63
2017-01-28T04:17:45.562Z,-7.63
2017-01-28T04:18:45.943Z,-7.58
2017-01-28T04:19:45.918Z,-7.58
2017-01-28T04:20:45.904Z,-7.66
2017-01-28T04:21:45.907Z,-7.59
2017-01-28T04:22:45.850Z,-7.56
2017-01-28T04:23:45.828Z,-7.59
2017-01-28T04:24:45.808Z,-7.55
2017-01-28T04:25:45.782Z,-7.49
2017-01-28T04:26:45.760Z,-7.52
2017-01-28T04:27:45.743Z,-7.52
2017-01-28T04:28:45.318Z,-7.45
2017-01-28T04:29:45.694Z,-7.45
2017-01-28T04:30:45.681Z,-7.36
2017-01-28T04:31:45.669Z,-7.3
2017-01-28T04:32:45.636Z,-7.2
2017-01-28T04:33:45.610Z,-7.1
2017-01-28T04:34:45.588Z,-7.13
2017-01-28T04:35:45.190Z,-7.16
2017-01-28T04:36:45.540Z,-7.07
2017-01-28T04:37:45.119Z,-7.06
2017-01-28T04:38:45.512Z,-7.01
2017-01-28T04:39:45.484Z,-7.07
2017-01-28T04:40:45.456Z,-7.01
2017-01-28T04:41:45.436Z,-7.01
2017-01-28T04:42:45.415Z,-6.97
2017-01-28T04:43:45.393Z,-6.98
2017-01-28T04:44:45.373Z,-7.05
2017-01-28T04:45:45.360Z,-6.97
2017-01-28T04:46:45.333Z,-6.92
2017-01-28T04:47:45.305Z,-6.89
2017-01-28T04:48:45.288Z,-6.97
2017-01-28T04:49:45.273Z,-6.83
2017-01-28T04:50:45.243Z,-6.7
2017-01-28T04:51:45.221Z,-6.7
2017-01-28T04:52:44.810Z,-6.6
2017-01-28T04:53:45.180Z,-6.62
2017-01-28T04:54:45.164Z,-6.6
2017-01-28T04:55:45.139Z,-6.67
2017-01-28T04:56:45.120Z,-6.71
2017-01-28T04:57:45.098Z,-6.71
2017-01-28T04:58:44.683Z,-6.68
2017-01-28T04:59:45.053Z,-6.77
2017-01-28T05:00:45.030Z,-6.73
2017-01-28T05:01:45.011Z,-6.77
2017-01-28T05:02:44.988Z,-6.78
2017-01-28T05:03:44.972Z,-6.71
2017-01-28T05:04:44.945Z,-6.8
2017-01-28T05:05:44.921Z,-6.81
2017-01-28T05:06:44.920Z,-6.87
2017-01-28T05:07:44.881Z,-6.81
2017-01-28T05:08:44.461Z,-6.89
2017-01-28T05:09:44.838Z,-6.88
2017-01-28T05:10:44.818Z,-6.92
2017-01-28T05:11:44.397Z,-6.91
2017-01-28T05:12:44.774Z,-6.99
2017-01-28T05:13:44.756Z,-6.88
2017-01-28T05:14:44.744Z,-6.97
2017-01-28T05:15:44.717Z,-6.87
2017-01-28T05:16:44.690Z,-6.88
2017-01-28T05:17:44.674Z,-6.88
2017-01-28T05:18:43.850Z,-6.95
2017-01-28T05:19:44.627Z,-6.99
2017-01-28T05:20:44.608Z,-7.07
2017-01-28T05:21:44.585Z,-7.1
2017-01-28T05:22:44.568Z,-7.1
2017-01-28T05:23:44.545Z,-7.1
2017-01-28T05:24:44.518Z,-7.06
2017-01-28T05:25:44.508Z,-7.12
2017-01-28T05:26:44.471Z,-7.16
2017-01-28T05:27:44.457Z,-7.13
2017-01-28T05:28:44.434Z,-7.07
2017-01-28T05:29:44.426Z,-7.17
2017-01-28T05:30:43.990Z,-7.15
2017-01-28T05:31:43.965Z,-7.13
2017-01-28T05:32:43.944Z,-7.15
2017-01-28T05:33:44.325Z,-7.16
2017-01-28T05:34:44.303Z,-7.15
2017-01-28T05:35:43.890Z,-7.12
2017-01-28T05:36:44.271Z,-7.2
2017-01-28T05:37:44.244Z,-7.17
2017-01-28T05:38:44.216Z,-7.26
2017-01-28T05:39:44.195Z,-7.22
2017-01-28T05:40:44.179Z,-7.19
2017-01-28T05:41:44.161Z,-7.15
2017-01-28T05:42:44.134Z,-7.16
2017-01-28T05:43:44.296Z,-7.19
2017-01-28T05:44:44.091Z,-7.2
2017-01-28T05:45:43.671Z,-7.15
2017-01-28T05:46:44.040Z,-7.13
2017-01-28T05:47:44.032Z,-7.22
2017-01-28T05:48:44.010Z,-7.22
2017-01-28T05:49:44.005Z,-7.31
2017-01-28T05:50:43.952Z,-7.26
2017-01-28T05:51:43.549Z,-7.3
2017-01-28T05:52:43.913Z,-7.3
2017-01-28T05:53:43.895Z,-7.31
2017-01-28T05:54:43.494Z,-7.27
2017-01-28T05:55:43.853Z,-7.3
2017-01-28T05:56:43.829Z,-7.24
2017-01-28T05:57:43.413Z,-7.31
2017-01-28T05:58:43.782Z,-7.27
2017-01-28T05:59:43.366Z,-7.26
2017-01-28T06:00:43.340Z,-7.28
2017-01-28T06:01:43.715Z,-7.3
2017-01-28T06:02:43.712Z,-7.44
2017-01-28T06:03:43.680Z,-7.44
2017-01-28T06:04:43.649Z,-7.48
2017-01-28T06:05:43.633Z,-7.54
2017-01-28T06:06:43.619Z,-7.56
2017-01-28T06:07:43.594Z,-7.54
2017-01-28T06:08:43.571Z,-7.55
2017-01-28T06:09:43.549Z,-7.59
2017-01-28T06:10:43.550Z,-7.59
2017-01-28T06:11:43.503Z,-7.58
2017-01-28T06:12:43.483Z,-7.63
2017-01-28T06:13:43.466Z,-7.62
2017-01-28T06:14:43.436Z,-7.63
2017-01-28T06:15:43.440Z,-7.59
2017-01-28T06:16:42.993Z,-7.55
2017-01-28T06:17:43.369Z,-7.54
2017-01-28T06:18:43.351Z,-7.49
2017-01-28T06:19:43.338Z,-7.54
2017-01-28T06:20:43.308Z,-7.59
2017-01-28T06:21:43.286Z,-7.47
2017-01-28T06:22:43.275Z,-7.54
2017-01-28T06:23:43.239Z,-7.48
2017-01-28T06:24:43.237Z,-7.44
2017-01-28T06:25:43.212Z,-7.38
2017-01-28T06:26:43.171Z,-7.45
2017-01-28T06:27:43.161Z,-7.49
2017-01-28T06:28:43.132Z,-7.45
2017-01-28T06:29:43.109Z,-7.45
2017-01-28T06:30:43.098Z,-7.24
2017-01-28T06:31:43.069Z,-7.37
2017-01-28T06:32:43.047Z,-7.24
2017-01-28T06:33:43.031Z,-7.33
2017-01-28T06:34:43.006Z,-7.31
2017-01-28T06:35:42.984Z,-7.4
2017-01-28T06:36:42.967Z,-7.44
2017-01-28T06:37:42.945Z,-7.42
2017-01-28T06:38:42.924Z,-7.51
2017-01-28T06:39:42.503Z,-7.47
2017-01-28T06:40:42.874Z,-7.3
2017-01-28T06:41:42.857Z,-7.3
2017-01-28T06:42:42.827Z,-7.33
2017-01-28T06:43:42.805Z,-7.3
2017-01-28T06:44:42.782Z,-7.28
2017-01-28T06:45:42.765Z,-7.33
2017-01-28T06:46:41.945Z,-7.34
2017-01-28T06:47:42.326Z,-7.31
2017-01-28T06:48:42.697Z,-7.37
2017-01-28T06:49:42.677Z,-7.3
2017-01-28T06:50:42.654Z,-7.33
2017-01-28T06:51:42.645Z,-7.24
2017-01-28T06:52:42.628Z,-7.31
2017-01-28T06:53:42.596Z,-7.36
2017-01-28T06:54:42.567Z,-7.36
2017-01-28T06:55:42.562Z,-7.34
2017-01-28T06:56:42.521Z,-7.26
2017-01-28T06:57:42.500Z,-7.26
2017-01-28T06:58:42.474Z,-7.31
2017-01-28T06:59:42.453Z,-7.33
2017-01-28T07:00:42.437Z,-7.26
2017-01-28T07:01:42.420Z,-7.31
2017-01-28T07:02:42.396Z,-7.28
2017-01-28T07:03:41.977Z,-7.28
2017-01-28T07:04:42.353Z,-7.33
2017-01-28T07:05:42.325Z,-7.27
2017-01-28T07:06:42.311Z,-7.28
2017-01-28T07:07:42.276Z,-7.37
2017-01-28T07:08:42.255Z,-7.48
2017-01-28T07:09:42.244Z,-7.44
2017-01-28T07:10:42.277Z,-7.42
2017-01-28T07:11:42.194Z,-7.4
2017-01-28T07:12:42.179Z,-7.48
2017-01-28T07:13:42.158Z,-7.44
2017-01-28T07:14:42.139Z,-7.48
2017-01-28T07:15:42.110Z,-7.42
2017-01-28T07:16:42.095Z,-7.48
2017-01-28T07:17:41.670Z,-7.4
2017-01-28T07:18:42.057Z,-7.4
2017-01-28T07:19:41.624Z,-7.4
2017-01-28T07:20:42.006Z,-7.44
2017-01-28T07:21:41.978Z,-7.47
2017-01-28T07:22:41.957Z,-7.26
2017-01-28T07:23:41.933Z,-7.33
2017-01-28T07:24:41.924Z,-7.3
2017-01-28T07:25:41.496Z,-7.3
2017-01-28T07:26:41.875Z,-7.22
2017-01-28T07:27:41.857Z,-7.2
2017-01-28T07:28:41.823Z,-7.19
2017-01-28T07:29:41.813Z,-7.15
2017-01-28T07:30:41.784Z,-7.12
2017-01-28T07:31:41.765Z,-7.13
2017-01-28T07:32:41.749Z,-7.06
2017-01-28T07:33:41.728Z,-7.16
2017-01-28T07:34:41.702Z,-7.1
2017-01-28T07:35:41.272Z,-7.09
2017-01-28T07:36:41.663Z,-7.1
2017-01-28T07:37:41.632Z,-7.01
2017-01-28T07:38:41.605Z,-7.1
2017-01-28T07:39:41.192Z,-7.05
2017-01-28T07:40:41.560Z,-7.1
2017-01-28T07:41:41.547Z,-7.1
2017-01-28T07:42:41.526Z,-7.1
2017-01-28T07:43:41.101Z,-6.95
2017-01-28T07:44:41.494Z,-6.95
2017-01-28T07:45:41.461Z,-6.89
2017-01-28T07:46:41.540Z,-6.94
2017-01-28T07:47:41.463Z,-6.97
2017-01-28T07:48:40.999Z,-6.98
2017-01-28T07:49:41.386Z,-6.87
2017-01-28T07:50:41.356Z,-6.88
2017-01-28T07:51:41.333Z,-6.87
2017-01-28T07:52:41.312Z,-6.8
2017-01-28T07:53:41.293Z,-6.76
2017-01-28T07:54:40.864Z,-6.78
2017-01-28T07:55:40.839Z,-6.83
2017-01-28T07:56:41.223Z,-6.76
2017-01-28T07:57:41.196Z,-6.78
2017-01-28T07:58:40.779Z,-6.7
2017-01-28T07:59:41.155Z,-6.73
2017-01-28T08:00:41.164Z,-6.74
2017-01-28T08:01:41.108Z,-6.7
2017-01-28T08:02:41.094Z,-6.77
2017-01-28T08:03:41.080Z,-6.73
2017-01-28T08:04:41.041Z,-6.7
2017-01-28T08:05:41.064Z,-6.74
2017-01-28T08:06:41.048Z,-6.67
2017-01-28T08:07:41.023Z,-6.68
2017-01-28T08:08:40.604Z,-6.73
2017-01-28T08:09:40.984Z,-6.67
2017-01-28T08:10:40.969Z,-6.65
2017-01-28T08:11:40.939Z,-6.65
2017-01-28T08:12:40.923Z,-6.67
2017-01-28T08:13:40.908Z,-6.63
2017-01-28T08:14:40.869Z,-6.52
2017-01-28T08:15:40.847Z,-6.59
2017-01-28T08:16:40.833Z,-6.62
2017-01-28T08:17:40.805Z,-6.54
2017-01-28T08:18:40.783Z,-6.49
2017-01-28T08:19:40.769Z,-6.37
2017-01-28T08:20:40.759Z,-6.44
2017-01-28T08:21:40.725Z,-6.36
2017-01-28T08:22:40.710Z,-6.36
2017-01-28T08:23:40.682Z,-6.31
2017-01-28T08:24:40.660Z,-6.38
2017-01-28T08:25:40.244Z,-6.18
2017-01-28T08:26:40.616Z,-6.2
2017-01-28T08:27:40.595Z,-6.23
2017-01-28T08:28:40.605Z,-6.18
2017-01-28T08:29:40.153Z,-6.13
2017-01-28T08:30:40.527Z,-6.08
2017-01-28T08:31:40.108Z,-6.04
2017-01-28T08:32:40.096Z,-5.98
2017-01-28T08:33:40.473Z,-5.86
2017-01-28T08:34:40.443Z,-5.89
2017-01-28T08:35:40.425Z,-5.83
2017-01-28T08:36:40.400Z,-5.79
2017-01-28T08:37:39.988Z,-5.79
2017-01-28T08:38:39.959Z,-5.8
2017-01-28T08:39:39.954Z,-5.66
2017-01-28T08:40:39.914Z,-5.73
2017-01-28T08:41:39.895Z,-5.68
2017-01-28T08:42:39.883Z,-5.66
2017-01-28T08:43:39.871Z,-5.6
2017-01-28T08:44:39.839Z,-5.6
2017-01-28T08:45:39.821Z,-5.65
2017-01-28T08:46:40.200Z,-5.56
2017-01-28T08:47:40.180Z,-5.48
2017-01-28T08:48:40.159Z,-5.47
2017-01-28T08:49:40.135Z,-5.44
2017-01-28T08:50:40.119Z,-5.38
2017-01-28T08:51:40.088Z,-5.4
2017-01-28T08:52:40.065Z,-5.24
2017-01-28T08:53:40.051Z,-5.31
2017-01-28T08:54:40.030Z,-5.19
2017-01-28T08:55:40.006Z,-5.19
2017-01-28T08:56:39.990Z,-5.12
2017-01-28T08:57:39.970Z,-5.07
2017-01-28T08:58:39.945Z,-5.02
2017-01-28T08:59:39.933Z,-4.97
2017-01-28T09:00:39.899Z,-4.9
2017-01-28T09:01:39.887Z,-4.89
2017-01-28T09:02:39.867Z,-4.87
2017-01-28T09:03:39.836Z,-4.71
2017-01-28T09:04:39.818Z,-4.72
2017-01-28T09:05:39.400Z,-4.61
2017-01-28T09:06:39.785Z,-4.66
2017-01-28T09:07:39.759Z,-4.59
2017-01-28T09:08:39.737Z,-4.54
2017-01-28T09:09:39.718Z,-4.59
2017-01-28T09:10:39.702Z,-4.53
2017-01-28T09:11:39.685Z,-4.47
2017-01-28T09:12:39.657Z,-4.44
2017-01-28T09:13:39.632Z,-4.43
2017-01-28T09:14:39.619Z,-4.45
2017-01-28T09:15:39.598Z,-4.37
2017-01-28T09:16:39.578Z,-4.34
2017-01-28T09:17:39.553Z,-4.37
2017-01-28T09:18:39.536Z,-4.33
2017-01-28T09:19:39.546Z,-4.23
2017-01-28T09:20:39.116Z,-4.26
2017-01-28T09:21:39.478Z,-4.27
2017-01-28T09:22:39.459Z,-4.15
2017-01-28T09:23:39.438Z,-4.18
2017-01-28T09:24:39.422Z,-4.12
2017-01-28T09:25:39.395Z,-4.15
2017-01-28T09:26:39.380Z,-4.11
2017-01-28T09:27:39.348Z,-4.09
2017-01-28T09:28:39.331Z,-3.96
2017-01-28T09:29:39.311Z,-3.91
2017-01-28T09:30:39.288Z,-3.94
2017-01-28T09:31:38.489Z,-3.88
2017-01-28T09:32:39.253Z,-3.87
2017-01-28T09:33:38.829Z,-3.82
2017-01-28T09:34:39.248Z,-3.79
2017-01-28T09:35:39.199Z,-3.87
2017-01-28T09:36:38.780Z,-3.66
2017-01-28T09:37:39.163Z,-3.66
2017-01-28T09:38:39.139Z,-3.58
2017-01-28T09:39:39.117Z,-3.57
2017-01-28T09:40:39.100Z,-3.61
2017-01-28T09:41:39.082Z,-3.56
2017-01-28T09:42:39.053Z,-3.57
2017-01-28T09:43:39.034Z,-3.5
2017-01-28T09:44:39.020Z,-3.51
2017-01-28T09:45:39.006Z,-3.5
2017-01-28T09:46:38.991Z,-3.45
2017-01-28T09:47:38.965Z,-3.39
2017-01-28T09:48:38.537Z,-3.51
2017-01-28T09:49:38.920Z,-3.43
2017-01-28T09:50:38.907Z,-3.33
2017-01-28T09:51:38.495Z,-3.24
2017-01-28T09:52:38.859Z,-3.28
2017-01-28T09:53:38.841Z,-3.21
2017-01-28T09:54:38.826Z,-3.19
2017-01-28T09:55:38.811Z,-3.24
2017-01-28T09:56:38.784Z,-3.15
2017-01-28T09:57:38.775Z,-3.14
2017-01-28T09:58:38.740Z,-3.06
2017-01-28T09:59:38.743Z,-3.01
2017-01-28T10:00:38.704Z,-3.11
2017-01-28T10:01:38.698Z,-3
2017-01-28T10:02:38.670Z,-3.09
2017-01-28T10:03:38.649Z,-3.01
2017-01-28T10:04:38.630Z,-3.06
2017-01-28T10:05:38.605Z,-2.97
2017-01-28T10:06:38.588Z,-2.93
2017-01-28T10:07:38.568Z,-2.88
2017-01-28T10:08:38.559Z,-2.86
2017-01-28T10:09:38.541Z,-2.82
2017-01-28T10:10:38.107Z,-2.76
2017-01-28T10:11:38.493Z,-2.82
2017-01-28T10:12:38.476Z,-2.79
2017-01-28T10:13:38.452Z,-2.78
2017-01-28T10:14:38.434Z,-2.68
2017-01-28T10:15:38.416Z,-2.76
2017-01-28T10:16:38.006Z,-2.62
2017-01-28T10:17:38.372Z,-2.6
2017-01-28T10:18:38.356Z,-2.55
2017-01-28T10:19:37.936Z,-2.61
2017-01-28T10:20:38.314Z,-2.54
2017-01-28T10:21:38.302Z,-2.49
2017-01-28T10:22:38.281Z,-2.44
2017-01-28T10:23:38.269Z,-2.46
2017-01-28T10:24:38.247Z,-2.54
2017-01-28T10:25:38.231Z,-2.44
2017-01-28T10:26:38.202Z,-2.32
2017-01-28T10:27:38.180Z,-2.36
2017-01-28T10:28:38.172Z,-2.44
2017-01-28T10:29:38.147Z,-2.4
2017-01-28T10:30:38.140Z,-2.3
2017-01-28T10:31:38.113Z,-2.28
2017-01-28T10:32:38.097Z,-2.28
2017-01-28T10:33:38.076Z,-2.12
2017-01-28T10:34:38.069Z,-2.14
2017-01-28T10:35:38.034Z,-2.06
2017-01-28T10:36:38.012Z,-1.97
2017-01-28T10:37:38.008Z,-1.85
2017-01-28T10:38:37.994Z,-1.79
2017-01-28T10:39:37.560Z,-1.68
2017-01-28T10:40:37.942Z,-1.6
2017-01-28T10:41:37.924Z,-1.49
2017-01-28T10:42:37.897Z,-1.49
2017-01-28T10:43:37.885Z,-1.49
2017-01-28T10:44:37.864Z,-1.35
2017-01-28T10:45:37.837Z,-1.35
2017-01-28T10:46:37.443Z,-1.28
2017-01-28T10:47:37.413Z,-1.27
2017-01-28T10:48:37.388Z,-1.13
2017-01-28T10:49:37.773Z,-1.14
2017-01-28T10:50:37.754Z,-1.04
2017-01-28T10:51:37.740Z,-1.04
2017-01-28T10:52:37.721Z,-0.91
2017-01-28T10:53:37.701Z,-0.82
2017-01-28T10:54:37.679Z,-0.87
2017-01-28T10:55:37.653Z,-0.77
2017-01-28T10:56:37.644Z,-0.8
2017-01-28T10:57:37.224Z,-0.82
2017-01-28T10:58:37.206Z,-0.72
2017-01-28T10:59:37.588Z,-0.66
2017-01-28T11:00:37.584Z,-0.74
2017-01-28T11:01:37.548Z,-0.66
2017-01-28T11:02:37.137Z,-0.72
2017-01-28T11:03:37.116Z,-0.64
2017-01-28T11:04:37.096Z,-0.69
2017-01-28T11:05:37.486Z,-0.66
2017-01-28T11:06:37.070Z,-0.7
2017-01-28T11:07:37.444Z,-0.67
2017-01-28T11:08:37.433Z,-0.79
2017-01-28T11:09:37.414Z,-0.77
2017-01-28T11:10:37.392Z,-0.7
2017-01-28T11:11:36.967Z,-0.66
2017-01-28T11:12:36.956Z,-0.66
2017-01-28T11:13:37.328Z,-0.69
2017-01-28T11:14:37.321Z,-0.59
2017-01-28T11:15:37.293Z,-0.58
2017-01-28T11:16:37.287Z,-0.67
2017-01-28T11:17:36.860Z,-0.67
2017-01-28T11:18:37.241Z,-0.56
2017-01-28T11:19:36.828Z,-0.66
2017-01-28T11:20:37.215Z,-0.69
2017-01-28T11:21:37.198Z,-0.64
2017-01-28T11:22:37.187Z,-0.7
2017-01-28T11:23:36.757Z,-0.72
2017-01-28T11:24:37.146Z,-0.56
2017-01-28T11:25:37.114Z,-0.52
2017-01-28T11:26:37.102Z,-0.41
2017-01-28T11:27:37.087Z,-0.45
2017-01-28T11:28:37.064Z,-0.45
2017-01-28T11:29:37.043Z,-0.38
2017-01-28T11:30:37.034Z,-0.37
2017-01-28T11:31:37.028Z,-0.27
2017-01-28T11:32:37.001Z,-0.22
2017-01-28T11:33:36.587Z,-0.07
2017-01-28T11:34:36.956Z,-0.13
2017-01-28T11:35:36.954Z,-0.04
2017-01-28T11:36:36.930Z,-0.04
2017-01-28T11:37:36.910Z,0.1
2017-01-28T11:38:36.893Z,0.1
2017-01-28T11:39:36.884Z,0.17
2017-01-28T11:40:36.862Z,0.2
2017-01-28T11:41:36.833Z,0.27
2017-01-28T11:42:36.838Z,0.26
2017-01-28T11:43:36.808Z,0.34
2017-01-28T11:44:36.390Z,0.27
2017-01-28T11:45:36.775Z,0.37
2017-01-28T11:46:36.750Z,0.44
2017-01-28T11:47:36.736Z,0.53
2017-01-28T11:48:36.727Z,0.61
2017-01-28T11:49:36.710Z,0.61
2017-01-28T11:50:36.681Z,0.67
2017-01-28T11:51:36.662Z,0.64
2017-01-28T11:52:36.649Z,0.61
2017-01-28T11:53:36.633Z,0.75
2017-01-28T11:54:36.618Z,0.78
2017-01-28T11:55:36.599Z,0.86
2017-01-28T11:56:36.579Z,0.86
2017-01-28T11:57:36.558Z,0.79
2017-01-28T11:58:36.555Z,0.89
2017-01-28T11:59:36.536Z,0.89
2017-01-28T12:00:36.113Z,0.96
2017-01-28T12:01:36.495Z,0.94
2017-01-28T12:02:36.477Z,0.94
2017-01-28T12:03:36.470Z,1.02
2017-01-28T12:04:36.445Z,1.02
2017-01-28T12:05:36.435Z,0.97
2017-01-28T12:06:36.406Z,0.99
2017-01-28T12:07:35.989Z,0.99
2017-01-28T12:08:36.376Z,0.97
2017-01-28T12:09:36.360Z,1.02
2017-01-28T12:10:36.337Z,0.97
2017-01-28T12:11:35.926Z,0.94
2017-01-28T12:12:36.318Z,0.94
2017-01-28T12:13:36.299Z,0.85
2017-01-28T12:14:36.278Z,0.89
2017-01-28T12:15:36.255Z,0.92
2017-01-28T12:16:36.237Z,0.84
2017-01-28T12:17:36.230Z,0.84
2017-01-28T12:18:36.201Z,0.75
2017-01-28T12:19:35.806Z,0.81
2017-01-28T12:20:36.179Z,0.79
2017-01-28T12:21:36.155Z,0.69
2017-01-28T12:22:35.745Z,0.64
2017-01-28T12:23:36.126Z,0.61
2017-01-28T12:24:36.108Z,0.61
2017-01-28T12:25:36.093Z,0.61
2017-01-28T12:26:35.680Z,0.63
2017-01-28T12:27:36.053Z,0.67
2017-01-28T12:28:36.039Z,0.56
2017-01-28T12:29:36.039Z,0.63
2017-01-28T12:30:36.009Z,0.71
2017-01-28T12:31:35.985Z,0.64
2017-01-28T12:32:35.969Z,0.6
2017-01-28T12:33:35.952Z,0.64
2017-01-28T12:34:35.934Z,0.61
2017-01-28T12:35:35.923Z,0.56
2017-01-28T12:36:35.909Z,0.53
2017-01-28T12:37:35.888Z,0.48
2017-01-28T12:38:35.475Z,0.45
2017-01-28T12:39:35.855Z,0.39
2017-01-28T12:40:35.440Z,0.39
2017-01-28T12:41:35.829Z,0.37
2017-01-28T12:42:35.813Z,0.27
2017-01-28T12:43:35.793Z,0.23
2017-01-28T12:44:35.769Z,0.23
2017-01-28T12:45:35.758Z,0.2
2017-01-28T12:46:35.741Z,0.16
2017-01-28T12:47:35.723Z,0.17
2017-01-28T12:48:35.312Z,0.16
2017-01-28T12:49:35.686Z,0.17
2017-01-28T12:50:35.667Z,0.17
2017-01-28T12:51:35.652Z,0.16
2017-01-28T12:52:35.648Z,0.13
2017-01-28T12:53:35.616Z,0.13
2017-01-28T12:54:35.607Z,0.03
2017-01-28T12:55:35.585Z,0.06
2017-01-28T12:56:35.575Z,0.03
2017-01-28T12:57:35.556Z,0.01
2017-01-28T12:58:35.537Z,0.03